Terminal Aerodrome Forecast
Issued by NWS

Current Version | Previous Version | Text Only | Print | Product List | Glossary Off
Versions: 1 2 3 4 5 6 7 8 9 10 11 12 13 14 15 16 17 18 19 20 21 22 23 24 25

143
FTUS41 KRLX 150234 AAA
TAFCKB
TAF AMD
KCKB 150234Z 1503/1524 32002KT 3SM BR OVC006
      TEMPO 1503/1505 2SM -DZ BR OVC004
     FM150800 36003KT 4SM BR OVC010
     FM151400 01004KT P6SM BKN035
     FM151600 02005KT P6SM BKN060
     FM151900 05005KT P6SM SCT080=

USA.gov is the U.S. government's official web portal to all federal, state and local government web resources and services.